createdAt,value
2019-04-27T00:00:09.269Z,5.87
2019-04-27T00:03:06.064Z,9.80
2019-04-27T00:05:43.396Z,10.87
2019-04-27T00:08:35.089Z,8.67
2019-04-27T00:11:14.438Z,10.20
2019-04-27T00:13:44.097Z,10.33
2019-04-27T00:16:23.484Z,10.90
2019-04-27T00:19:10.004Z,12.53
2019-04-27T00:21:48.359Z,13.73
2019-04-27T00:24:17.463Z,12.30
2019-04-27T00:26:46.563Z,13.20
2019-04-27T00:29:15.611Z,10.43
2019-04-27T00:31:45.198Z,9.90
2019-04-27T00:34:15.103Z,12.40
2019-04-27T00:36:53.491Z,10.83
2019-04-27T00:39:33.134Z,11.90
2019-04-27T00:42:03.287Z,8.50
2019-04-27T00:44:33.857Z,10.10
2019-04-27T00:47:04.707Z,13.33
2019-04-27T00:49:33.715Z,12.43
2019-04-27T00:52:03.704Z,8.83
2019-04-27T00:54:34.016Z,13.90
2019-04-27T00:57:13.075Z,10.40
2019-04-27T01:00:13.512Z,10.73
2019-04-27T01:02:57.970Z,10.13
2019-04-27T01:05:27.997Z,9.57
2019-04-27T01:07:57.046Z,13.07
2019-04-27T01:10:26.165Z,10.93
2019-04-27T01:12:55.387Z,9.07
2019-04-27T01:15:24.548Z,8.73
2019-04-27T01:17:53.621Z,9.57
2019-04-27T01:20:22.762Z,10.67
2019-04-27T01:22:51.755Z,8.20
2019-04-27T01:25:22.428Z,10.57
2019-04-27T01:28:09.788Z,10.97
2019-04-27T01:30:46.667Z,9.67
2019-04-27T01:33:15.842Z,8.60
2019-04-27T01:35:44.883Z,9.30
2019-04-27T01:38:13.999Z,8.60
2019-04-27T01:40:43.071Z,10.37
2019-04-27T01:43:12.200Z,9.60
2019-04-27T01:45:41.275Z,9.10
2019-04-27T01:48:22.427Z,10.10
2019-04-27T01:50:41.525Z,8.77
2019-04-27T01:53:10.701Z,10.30
2019-04-27T01:55:40.768Z,10.63
2019-04-27T01:58:11.000Z,7.77
2019-04-27T02:01:16.302Z,10.57
2019-04-27T02:03:56.232Z,8.53
2019-04-27T02:06:26.422Z,9.00
2019-04-27T02:08:55.464Z,12.10
2019-04-27T02:11:24.543Z,9.47
2019-04-27T02:13:53.637Z,9.93
2019-04-27T02:16:22.835Z,9.60
2019-04-27T02:18:51.940Z,9.30
2019-04-27T02:21:21.090Z,8.37
2019-04-27T02:23:50.118Z,9.40
2019-04-27T02:26:21.366Z,8.80
2019-04-27T02:29:04.475Z,7.83
2019-04-27T02:31:55.435Z,5.83
2019-04-27T02:34:31.924Z,9.23
2019-04-27T02:36:59.537Z,9.30
2019-04-27T02:39:29.740Z,9.07
2019-04-27T02:42:00.167Z,9.57
2019-04-27T02:44:40.435Z,6.57
2019-04-27T02:47:10.425Z,10.87
2019-04-27T02:49:40.549Z,6.60
2019-04-27T02:52:30.143Z,6.90
2019-04-27T02:54:59.518Z,8.33
2019-04-27T02:57:30.123Z,10.67
2019-04-27T03:00:00.130Z,7.53
2019-04-27T03:02:42.716Z,9.03
2019-04-27T03:05:19.980Z,7.37
2019-04-27T03:07:50.362Z,9.27
2019-04-27T03:10:19.970Z,11.23
2019-04-27T03:12:54.588Z,8.93
2019-04-27T03:15:43.494Z,7.10
2019-04-27T03:18:29.702Z,8.50
2019-04-27T03:21:13.143Z,7.13
2019-04-27T03:23:42.562Z,8.87
2019-04-27T03:26:33.609Z,6.90
2019-04-27T03:29:02.712Z,7.80
2019-04-27T03:31:33.100Z,7.37
2019-04-27T03:34:05.411Z,10.37
2019-04-27T03:36:33.154Z,9.37
2019-04-27T03:39:02.351Z,9.10
2019-04-27T03:41:31.409Z,7.20
2019-04-27T03:44:00.513Z,7.27
2019-04-27T03:46:30.256Z,6.90
2019-04-27T03:49:00.102Z,9.03
2019-04-27T03:51:51.312Z,9.80
2019-04-27T03:54:46.218Z,5.77
2019-04-27T03:57:51.036Z,6.43
2019-04-27T04:00:22.687Z,8.93
2019-04-27T04:02:51.952Z,9.53
2019-04-27T04:05:21.044Z,11.57
2019-04-27T04:07:50.531Z,8.60
2019-04-27T04:10:20.164Z,10.07
2019-04-27T04:13:10.773Z,8.53
2019-04-27T04:16:00.160Z,13.17
2019-04-27T04:18:31.830Z,7.17
2019-04-27T04:21:01.046Z,6.73
2019-04-27T04:23:30.175Z,11.33
2019-04-27T04:25:59.875Z,12.57
2019-04-27T04:28:29.611Z,9.63
2019-04-27T04:31:00.443Z,8.07
2019-04-27T04:33:30.357Z,11.40
2019-04-27T04:35:59.884Z,11.40
2019-04-27T04:38:30.416Z,6.40
2019-04-27T04:41:03.760Z,7.87
2019-04-27T04:43:55.016Z,12.03
2019-04-27T04:46:55.231Z,10.27
2019-04-27T04:49:24.303Z,14.33
2019-04-27T04:51:53.635Z,11.93
2019-04-27T04:54:24.726Z,13.47
2019-04-27T04:56:53.273Z,12.37
2019-04-27T04:59:22.299Z,12.43
2019-04-27T05:01:51.360Z,14.17
2019-04-27T05:04:20.520Z,15.03
2019-04-27T05:06:50.781Z,12.43
2019-04-27T05:09:20.019Z,12.93
2019-04-27T05:11:49.144Z,16.73
2019-04-27T05:14:19.989Z,16.37
2019-04-27T05:16:49.179Z,14.60
2019-04-27T05:19:18.866Z,19.10
2019-04-27T05:21:49.163Z,25.53
2019-04-27T05:24:19.232Z,24.73
2019-04-27T05:26:48.783Z,19.83
2019-04-27T05:29:19.117Z,17.23
2019-04-27T05:31:49.026Z,25.10
2019-04-27T05:34:19.691Z,30.87
2019-04-27T05:36:52.471Z,40.23
2019-04-27T05:39:24.745Z,40.77
2019-04-27T05:41:50.607Z,37.77
2019-04-27T05:44:28.617Z,45.77
2019-04-27T05:47:25.764Z,29.50
2019-04-27T05:50:08.971Z,31.00
2019-04-27T05:52:38.668Z,25.47
2019-04-27T05:55:10.509Z,32.63
2019-04-27T05:57:39.747Z,34.60
2019-04-27T06:00:09.498Z,42.43
2019-04-27T06:02:39.816Z,41.63
2019-04-27T06:05:09.147Z,51.07
2019-04-27T06:07:39.622Z,50.57
2019-04-27T06:10:09.555Z,55.17
2019-04-27T06:12:39.561Z,58.77
2019-04-27T06:15:09.770Z,61.47
2019-04-27T06:17:38.975Z,68.43
2019-04-27T06:20:09.063Z,64.77
2019-04-27T06:22:39.053Z,66.07
2019-04-27T06:25:11.775Z,64.00
2019-04-27T06:27:39.778Z,66.07
2019-04-27T06:30:09.404Z,70.30
2019-04-27T06:32:39.519Z,66.63
2019-04-27T06:35:12.135Z,55.90
2019-04-27T06:37:39.987Z,64.33
2019-04-27T06:40:09.810Z,74.00
2019-04-27T06:42:39.866Z,77.53
2019-04-27T06:45:09.965Z,72.53
2019-04-27T06:47:41.264Z,74.83
2019-04-27T06:50:10.082Z,69.70
2019-04-27T06:52:39.222Z,77.93
2019-04-27T06:55:09.387Z,74.83
2019-04-27T06:57:39.109Z,68.73
2019-04-27T07:00:09.807Z,71.47
2019-04-27T07:02:39.306Z,70.80
2019-04-27T07:05:08.967Z,60.47
2019-04-27T07:07:39.499Z,64.20
2019-04-27T07:10:08.779Z,63.27
2019-04-27T07:12:40.691Z,47.67
2019-04-27T07:15:28.693Z,44.17
2019-04-27T07:18:36.233Z,54.90
2019-04-27T07:27:00.100Z,34.03
2019-04-27T07:29:29.361Z,36.87
2019-04-27T07:31:59.623Z,18.37
2019-04-27T07:34:30.457Z,38.97
2019-04-27T07:36:59.959Z,45.17
2019-04-27T07:39:29.437Z,31.47
2019-04-27T07:41:58.666Z,38.30
2019-04-27T07:44:44.475Z,24.93
2019-04-27T07:47:30.744Z,18.87
2019-04-27T07:49:59.274Z,27.30
2019-04-27T07:52:29.859Z,22.77
2019-04-27T07:54:59.044Z,29.87
2019-04-27T07:57:28.973Z,29.37
2019-04-27T07:59:59.693Z,19.40
2019-04-27T08:02:29.159Z,23.63
2019-04-27T08:04:59.616Z,20.77
2019-04-27T08:07:29.187Z,24.97
2019-04-27T08:10:01.137Z,24.90
2019-04-27T08:12:29.024Z,22.93
2019-04-27T08:14:59.912Z,19.97
2019-04-27T08:17:30.279Z,14.23
2019-04-27T08:19:59.701Z,8.97
2019-04-27T08:22:29.124Z,15.10
2019-04-27T08:24:59.483Z,10.23
2019-04-27T08:27:40.774Z,18.20
2019-04-27T08:30:20.411Z,14.10
2019-04-27T08:32:50.232Z,15.00
2019-04-27T08:35:19.588Z,17.67
2019-04-27T08:37:49.541Z,14.00
2019-04-27T08:40:19.399Z,21.77
2019-04-27T08:42:49.192Z,16.33
2019-04-27T08:45:19.479Z,9.40
2019-04-27T08:47:49.886Z,14.40
2019-04-27T08:50:19.301Z,16.80
2019-04-27T08:52:50.160Z,18.07
2019-04-27T08:55:19.703Z,13.13
2019-04-27T08:57:49.179Z,16.27
2019-04-27T09:00:19.313Z,19.00
2019-04-27T09:02:50.297Z,17.80
2019-04-27T09:05:25.691Z,14.67
2019-04-27T09:08:24.063Z,18.93
2019-04-27T09:11:02.735Z,20.37
2019-04-27T09:13:58.834Z,19.43
2019-04-27T09:16:39.175Z,20.03
2019-04-27T09:19:15.003Z,15.63
2019-04-27T09:22:12.706Z,21.47
2019-04-27T09:24:33.078Z,14.43
2019-04-27T09:27:02.139Z,19.20
2019-04-27T09:29:31.196Z,29.07
2019-04-27T09:32:01.798Z,25.27
2019-04-27T09:34:30.927Z,18.63
2019-04-27T09:36:59.942Z,20.03
2019-04-27T09:39:28.995Z,14.53
2019-04-27T09:41:58.011Z,17.17
2019-04-27T09:44:27.059Z,14.53
2019-04-27T09:46:56.208Z,12.23
2019-04-27T09:49:26.308Z,12.67
2019-04-27T09:51:55.762Z,13.13
2019-04-27T09:54:24.927Z,12.73
2019-04-27T09:56:53.997Z,16.93
2019-04-27T09:59:23.091Z,21.03
2019-04-27T10:01:52.151Z,13.20
2019-04-27T10:04:21.199Z,15.97
2019-04-27T10:06:50.372Z,16.77
2019-04-27T10:09:19.458Z,18.33
2019-04-27T10:11:48.605Z,9.63
2019-04-27T10:14:17.655Z,14.77
2019-04-27T10:16:47.022Z,17.80
2019-04-27T10:19:28.076Z,18.37
2019-04-27T10:21:46.994Z,14.53
2019-04-27T10:24:15.897Z,17.20
2019-04-27T10:26:44.995Z,11.77
2019-04-27T10:29:14.022Z,12.53
2019-04-27T10:31:43.115Z,11.80
2019-04-27T10:34:12.201Z,15.37
2019-04-27T10:36:41.234Z,15.53
2019-04-27T10:39:13.417Z,12.47
2019-04-27T10:41:42.803Z,9.07
2019-04-27T10:44:11.858Z,10.70
2019-04-27T10:46:41.070Z,10.10
2019-04-27T10:49:10.735Z,13.80
2019-04-27T10:51:39.737Z,12.03
2019-04-27T10:54:08.946Z,7.77
2019-04-27T10:56:38.179Z,13.33
2019-04-27T10:59:09.635Z,11.40
2019-04-27T11:01:38.045Z,12.80
2019-04-27T11:04:22.351Z,4.80
2019-04-27T11:06:57.415Z,9.70
2019-04-27T11:09:26.516Z,11.10
2019-04-27T11:11:56.594Z,14.60
2019-04-27T11:14:26.265Z,5.07
2019-04-27T11:16:56.036Z,9.83
2019-04-27T11:19:26.794Z,11.90
2019-04-27T11:21:55.805Z,9.27
2019-04-27T11:24:24.892Z,12.17
2019-04-27T11:26:53.863Z,9.00
2019-04-27T11:29:23.105Z,7.83
2019-04-27T11:31:52.298Z,8.03
2019-04-27T11:34:23.035Z,9.00
2019-04-27T11:37:05.671Z,10.53
2019-04-27T11:39:35.957Z,9.80
2019-04-27T11:42:05.023Z,9.67
2019-04-27T11:44:35.860Z,7.10
2019-04-27T11:47:06.021Z,8.70
2019-04-27T11:49:35.945Z,3.90
2019-04-27T11:52:05.833Z,5.43
2019-04-27T11:54:35.600Z,5.10
2019-04-27T11:57:04.908Z,6.57
2019-04-27T11:59:33.865Z,9.73
2019-04-27T12:02:02.992Z,4.40
2019-04-27T12:04:31.991Z,15.77
2019-04-27T12:07:01.121Z,7.07
2019-04-27T12:09:30.176Z,6.47
2019-04-27T12:12:12.673Z,9.40
2019-04-27T12:14:30.027Z,6.27
2019-04-27T12:16:59.123Z,5.00
2019-04-27T12:19:28.278Z,8.57
2019-04-27T12:21:57.353Z,5.07
2019-04-27T12:24:26.797Z,3.00
2019-04-27T12:27:02.390Z,7.23
2019-04-27T12:29:49.147Z,5.80
2019-04-27T12:32:18.475Z,4.53
2019-04-27T12:34:47.537Z,6.47
2019-04-27T12:37:16.729Z,10.23
2019-04-27T12:39:45.782Z,5.77
2019-04-27T12:42:16.054Z,11.67
2019-04-27T12:44:45.311Z,11.63
2019-04-27T12:47:16.232Z,9.30
2019-04-27T12:49:45.189Z,10.67
2019-04-27T12:52:15.831Z,10.23
2019-04-27T12:54:51.050Z,9.37
2019-04-27T12:57:45.091Z,7.57
2019-04-27T13:00:26.623Z,10.30
2019-04-27T13:02:57.693Z,11.80
2019-04-27T13:05:26.669Z,11.27
2019-04-27T13:07:55.779Z,10.10
2019-04-27T13:10:24.913Z,4.37
2019-04-27T13:12:54.031Z,6.83
2019-04-27T13:15:23.140Z,4.07
2019-04-27T13:17:52.283Z,10.13
2019-04-27T13:20:21.351Z,7.77
2019-04-27T13:22:50.449Z,9.83
2019-04-27T13:25:19.455Z,12.80
2019-04-27T13:27:51.042Z,8.20
2019-04-27T13:30:19.407Z,8.70
2019-04-27T13:32:48.396Z,8.13
2019-04-27T13:35:17.507Z,12.00
2019-04-27T13:37:46.799Z,7.30
2019-04-27T13:40:17.773Z,12.87
2019-04-27T13:43:10.229Z,8.80
2019-04-27T13:46:01.498Z,14.73
2019-04-27T13:48:47.602Z,13.83
2019-04-27T13:51:32.288Z,9.07
2019-04-27T13:54:14.112Z,12.93
2019-04-27T13:56:32.186Z,14.00
2019-04-27T13:59:03.249Z,11.37
2019-04-27T14:01:32.301Z,14.00
2019-04-27T14:04:01.419Z,12.77
2019-04-27T14:06:30.487Z,9.00
2019-04-27T14:08:59.680Z,12.53
2019-04-27T14:11:29.076Z,10.47
2019-04-27T14:13:58.131Z,11.07
2019-04-27T14:16:28.999Z,8.23
2019-04-27T14:18:59.415Z,8.97
2019-04-27T14:21:29.590Z,11.83
2019-04-27T14:23:58.734Z,7.60
2019-04-27T14:26:28.433Z,10.07
2019-04-27T14:28:58.329Z,4.70
2019-04-27T14:31:29.079Z,7.70
2019-04-27T14:33:58.733Z,7.57
2019-04-27T14:36:29.223Z,10.47
2019-04-27T14:38:58.853Z,9.30
2019-04-27T14:41:28.294Z,15.80
2019-04-27T14:44:06.098Z,13.37
2019-04-27T14:46:30.441Z,7.40
2019-04-27T14:48:59.060Z,11.23
2019-04-27T14:51:28.096Z,4.27
2019-04-27T14:53:58.815Z,10.87
2019-04-27T14:56:28.301Z,9.73
2019-04-27T14:58:58.719Z,11.60
2019-04-27T15:01:29.053Z,12.53
2019-04-27T15:03:58.189Z,14.87
2019-04-27T15:06:27.207Z,9.27
2019-04-27T15:08:56.279Z,5.70
2019-04-27T15:11:25.324Z,8.43
2019-04-27T15:13:56.879Z,11.43
2019-04-27T15:16:25.195Z,10.83
2019-04-27T15:18:59.963Z,15.27
2019-04-27T15:21:32.637Z,8.70
2019-04-27T15:24:04.277Z,15.07
2019-04-27T15:26:30.886Z,10.63
2019-04-27T15:29:02.126Z,10.70
2019-04-27T15:31:36.112Z,11.27
2019-04-27T15:34:27.634Z,16.17
2019-04-27T15:37:02.187Z,11.90
2019-04-27T15:39:57.814Z,10.33
2019-04-27T15:42:33.910Z,11.97
2019-04-27T15:45:03.016Z,11.90
2019-04-27T15:47:33.655Z,10.90
2019-04-27T15:50:02.867Z,12.73
2019-04-27T15:52:33.285Z,11.33
2019-04-27T15:55:02.908Z,7.33
2019-04-27T15:57:33.183Z,11.83
2019-04-27T16:00:02.393Z,15.97
2019-04-27T16:02:31.490Z,12.20
2019-04-27T16:05:00.681Z,14.27
2019-04-27T16:07:31.715Z,8.10
2019-04-27T16:10:02.663Z,15.37
2019-04-27T16:12:31.456Z,11.83
2019-04-27T16:15:00.661Z,10.60
2019-04-27T16:17:31.986Z,8.67
2019-04-27T16:20:00.655Z,6.90
2019-04-27T16:22:29.762Z,5.60
2019-04-27T16:24:58.828Z,11.07
2019-04-27T16:27:33.662Z,8.43
2019-04-27T16:30:04.786Z,13.23
2019-04-27T16:32:29.404Z,6.23
2019-04-27T16:34:59.243Z,7.10
2019-04-27T16:37:43.399Z,7.53
2019-04-27T16:40:12.495Z,6.90
2019-04-27T16:42:45.244Z,6.73
2019-04-27T16:45:12.555Z,11.00
2019-04-27T16:47:41.676Z,12.30
2019-04-27T16:50:10.855Z,9.70
2019-04-27T16:52:39.848Z,7.17
2019-04-27T16:55:08.989Z,12.87
2019-04-27T16:57:40.032Z,8.63
2019-04-27T17:00:13.771Z,8.27
2019-04-27T17:02:42.867Z,8.83
2019-04-27T17:05:12.331Z,9.07
2019-04-27T17:07:41.844Z,6.20
2019-04-27T17:10:11.119Z,14.07
2019-04-27T17:12:45.329Z,6.57
2019-04-27T17:15:30.035Z,16.90
2019-04-27T17:18:33.423Z,13.90
2019-04-27T17:21:15.797Z,13.43
2019-04-27T17:23:33.431Z,7.67
2019-04-27T17:26:09.548Z,13.63
2019-04-27T17:28:50.586Z,9.57
2019-04-27T17:31:21.508Z,8.60
2019-04-27T17:33:55.450Z,11.93
2019-04-27T17:36:24.562Z,9.67
2019-04-27T17:38:53.526Z,6.43
2019-04-27T17:41:22.560Z,7.90
2019-04-27T17:43:51.624Z,3.77
2019-04-27T17:46:22.065Z,9.93
2019-04-27T17:48:51.231Z,7.50
2019-04-27T17:51:20.340Z,6.87
2019-04-27T17:53:50.025Z,9.10
2019-04-27T17:56:19.377Z,12.90
2019-04-27T17:58:48.748Z,10.07
2019-04-27T18:01:19.135Z,10.77
2019-04-27T18:03:58.392Z,12.00
2019-04-27T18:06:20.380Z,12.97
2019-04-27T18:08:50.463Z,8.80
2019-04-27T18:11:21.569Z,4.00
2019-04-27T18:13:50.590Z,5.30
2019-04-27T18:16:19.730Z,8.27
2019-04-27T18:18:59.971Z,10.20
2019-04-27T18:21:28.635Z,8.03
2019-04-27T18:24:01.594Z,9.53
2019-04-27T18:26:48.788Z,8.37
2019-04-27T18:29:11.555Z,8.90
2019-04-27T18:31:40.750Z,8.37
2019-04-27T18:34:15.012Z,6.37
2019-04-27T18:36:43.815Z,8.67
2019-04-27T18:39:13.710Z,8.50
2019-04-27T18:41:49.230Z,7.80
2019-04-27T18:44:12.922Z,8.20
2019-04-27T18:46:42.161Z,7.27
2019-04-27T18:49:33.120Z,7.70
2019-04-27T18:52:19.433Z,8.80
2019-04-27T18:54:48.498Z,7.80
2019-04-27T18:57:17.594Z,10.03
2019-04-27T18:59:48.138Z,5.30
2019-04-27T19:02:18.475Z,7.70
2019-04-27T19:04:49.953Z,11.47
2019-04-27T19:07:19.928Z,7.43
2019-04-27T19:09:49.598Z,15.23
2019-04-27T19:12:20.503Z,12.40
2019-04-27T19:14:49.857Z,7.43
2019-04-27T19:17:19.868Z,13.03
2019-04-27T19:19:49.180Z,11.07
2019-04-27T19:22:18.271Z,13.67
2019-04-27T19:24:47.346Z,6.27
2019-04-27T19:27:34.079Z,6.60
2019-04-27T19:30:15.110Z,9.90
2019-04-27T19:32:44.191Z,6.07
2019-04-27T19:35:13.291Z,9.03
2019-04-27T19:37:42.367Z,9.13
2019-04-27T19:40:11.565Z,15.50
2019-04-27T19:42:40.538Z,12.53
2019-04-27T19:45:09.629Z,6.63
2019-04-27T19:47:38.678Z,13.30
2019-04-27T19:50:07.893Z,11.10
2019-04-27T19:52:38.800Z,8.67
2019-04-27T19:55:08.553Z,10.77
2019-04-27T19:57:39.377Z,12.47
2019-04-27T20:00:19.156Z,9.93
2019-04-27T20:02:47.995Z,10.20
2019-04-27T20:05:18.798Z,7.97
2019-04-27T20:07:48.320Z,20.20
2019-04-27T20:10:17.528Z,9.47
2019-04-27T20:12:46.603Z,8.77
2019-04-27T20:15:43.128Z,7.03
2019-04-27T20:18:12.099Z,8.57
2019-04-27T20:20:41.236Z,6.70
2019-04-27T20:23:10.318Z,7.80
2019-04-27T20:25:41.105Z,10.40
2019-04-27T20:28:11.963Z,7.97
2019-04-27T20:30:41.655Z,10.43
2019-04-27T20:33:11.137Z,5.87
2019-04-27T20:35:40.775Z,5.70
2019-04-27T20:38:12.895Z,10.10
2019-04-27T20:41:01.389Z,8.67
2019-04-27T20:43:31.830Z,5.00
2019-04-27T20:46:01.028Z,9.33
2019-04-27T20:48:31.304Z,7.43
2019-04-27T20:51:01.314Z,7.97
2019-04-27T20:53:35.500Z,11.40
2019-04-27T20:56:04.435Z,7.73
2019-04-27T20:58:33.501Z,14.53
2019-04-27T21:01:02.676Z,8.50
2019-04-27T21:03:36.317Z,12.90
2019-04-27T21:06:33.273Z,10.60
2019-04-27T21:09:02.989Z,9.20
2019-04-27T21:11:46.160Z,8.90
2019-04-27T21:14:15.323Z,8.13
2019-04-27T21:16:44.461Z,6.83
2019-04-27T21:19:13.559Z,4.43
2019-04-27T21:21:42.803Z,7.80
2019-04-27T21:24:11.989Z,8.20
2019-04-27T21:26:41.967Z,10.53
2019-04-27T21:29:11.707Z,11.63
2019-04-27T21:31:41.802Z,6.77
2019-04-27T21:34:11.106Z,12.83
2019-04-27T21:36:42.132Z,12.10
2019-04-27T21:39:11.567Z,10.53
2019-04-27T21:41:41.327Z,7.07
2019-04-27T21:44:11.605Z,9.03
2019-04-27T21:46:41.676Z,11.27
2019-04-27T21:49:12.672Z,10.50
2019-04-27T21:52:01.394Z,17.80
2019-04-27T21:54:32.718Z,13.67
2019-04-27T21:57:02.127Z,18.27
2019-04-27T21:59:31.212Z,20.90
2019-04-27T22:02:02.248Z,15.00
2019-04-27T22:04:31.647Z,12.60
2019-04-27T22:07:01.414Z,13.27
2019-04-27T22:09:30.672Z,11.97
2019-04-27T22:12:00.615Z,8.33
2019-04-27T22:14:30.642Z,11.60
2019-04-27T22:17:00.856Z,12.43
2019-04-27T22:19:31.110Z,7.53
2019-04-27T22:22:02.064Z,4.97
2019-04-27T22:24:34.897Z,5.87
2019-04-27T22:27:04.041Z,10.77
2019-04-27T22:29:33.691Z,8.00
2019-04-27T22:32:02.809Z,10.63
2019-04-27T22:34:31.871Z,7.67
2019-04-27T22:37:02.701Z,6.57
2019-04-27T22:39:38.219Z,5.20
2019-04-27T22:42:44.619Z,7.33
2019-04-27T22:45:21.064Z,3.60
2019-04-27T22:47:51.251Z,6.83
2019-04-27T22:50:21.084Z,5.80
2019-04-27T22:52:50.160Z,4.17
2019-04-27T22:55:19.304Z,2.50
2019-04-27T22:58:11.702Z,6.70
2019-04-27T23:00:58.848Z,2.77
2019-04-27T23:03:31.639Z,3.37
2019-04-27T23:06:01.369Z,3.97
2019-04-27T23:08:31.246Z,4.07
2019-04-27T23:11:00.586Z,4.40
2019-04-27T23:13:31.059Z,3.10
2019-04-27T23:16:01.799Z,5.40
2019-04-27T23:18:31.242Z,3.80
2019-04-27T23:21:01.562Z,4.53
2019-04-27T23:23:31.054Z,7.33
2019-04-27T23:26:01.801Z,4.67
2019-04-27T23:28:31.343Z,7.90
2019-04-27T23:31:13.080Z,3.90
2019-04-27T23:33:44.795Z,6.10
2019-04-27T23:36:13.815Z,7.60
2019-04-27T23:38:42.838Z,4.03
2019-04-27T23:41:11.960Z,6.03
2019-04-27T23:43:41.054Z,8.80
2019-04-27T23:46:11.599Z,8.53
2019-04-27T23:48:41.968Z,10.70
2019-04-27T23:51:21.879Z,13.63
2019-04-27T23:53:51.671Z,13.47
2019-04-27T23:56:22.515Z,17.93
2019-04-27T23:58:51.603Z,12.00
